Time;durP1;ratioP1;P1;durP2;ratioP2;P2;SDS_P1;SDS_P2;PMS_P1;PMS_P2;Temp;Humidity;BMP_temperature;BMP_pressure;BME280_temperature;BME280_humidity;BME280_pressure;Samples;Min_cycle;Max_cycle;Signal;HPM_P1;HPM_P2
2022/02/20 00:01:04;;;;;;;;;;;;;;;3.96;69.09;99989.78;5111913;28;1922;-59
2022/02/20 00:03:31;;;;;;;;;;;;;;;3.88;69.69;99990.75;5111918;28;907;-58
2022/02/20 00:05:57;;;;;;;;;;;;;;;3.84;69.84;99996.16;5111994;28;850;-59
2022/02/20 00:08:24;;;;;;;;;;;;;;;3.88;70.18;99982.56;5111976;28;821;-59
2022/02/20 00:10:50;;;;;;;;;;;;;;;3.91;69.91;99992.00;5112214;28;806;-59
2022/02/20 00:13:17;;;;;;;;;;;;;;;3.86;70.21;99999.34;5111799;28;850;-59
2022/02/20 00:15:44;;;;;;;;;;;;;;;3.82;70.16;100001.19;5111945;28;1054;-59
2022/02/20 00:18:10;;;;;;;;;;;;;;;3.74;70.69;99999.41;5111798;28;851;-59
2022/02/20 00:20:37;;;;;;;;;;;;;;;3.64;70.67;99995.22;5093745;28;1921;-59
2022/02/20 00:23:04;;;;;;;;;;;;;;;3.57;71.35;99989.59;5111827;28;858;-59
2022/02/20 00:25:31;;;;;;;;;;;;;;;3.54;70.81;99986.75;5111663;28;953;-59
2022/02/20 00:27:58;;;;;;;;;;;;;;;3.53;71.38;99991.44;5111753;28;909;-59
2022/02/20 00:30:25;;;;;;;;;;;;;;;3.53;71.17;99990.66;5111783;28;866;-58
2022/02/20 00:32:52;;;;;;;;;;;;;;;3.58;71.34;99985.69;5111951;28;877;-59
2022/02/20 00:35:19;;;;;;;;;;;;;;;3.62;71.15;99969.41;5111594;28;889;-59
2022/02/20 00:37:45;;;;;;;;;;;;;;;3.63;71.33;99971.78;5111777;28;818;-59
2022/02/20 00:40:12;;;;;;;;;;;;;;;3.65;71.15;99965.97;5111561;28;1941;-59
2022/02/20 00:42:39;;;;;;;;;;;;;;;3.56;71.32;99968.84;5111521;28;904;-59
2022/02/20 00:45:05;;;;;;;;;;;;;;;3.52;71.08;99973.47;5111606;28;851;-59
2022/02/20 00:47:31;;;;;;;;;;;;;;;3.53;71.48;99979.72;5111684;28;886;-58
2022/02/20 00:49:58;;;;;;;;;;;;;;;3.48;71.55;99962.44;5111301;28;1452;-59
2022/02/20 00:52:24;;;;;;;;;;;;;;;3.46;71.79;99961.19;5111577;28;822;-59
2022/02/20 00:54:50;;;;;;;;;;;;;;;3.40;72.16;99952.44;5111514;28;877;-59
2022/02/20 00:57:17;;;;;;;;;;;;;;;3.37;71.74;99955.91;5111617;28;826;-59
2022/02/20 00:59:43;;;;;;;;;;;;;;;3.38;71.81;99951.22;5111461;28;842;-58
2022/02/20 01:02:10;;;;;;;;;;;;;;;3.36;72.13;99951.56;5111680;28;1971;-59
2022/02/20 01:04:36;;;;;;;;;;;;;;;3.34;71.88;99950.34;5111475;28;901;-59
2022/02/20 01:07:03;;;;;;;;;;;;;;;3.33;72.44;99946.00;5111653;28;864;-59
2022/02/20 01:09:29;;;;;;;;;;;;;;;3.22;72.62;99938.34;5115169;28;822;-58
2022/02/20 01:11:56;;;;;;;;;;;;;;;3.17;72.27;99937.78;5115140;28;861;-58
2022/02/20 01:14:22;;;;;;;;;;;;;;;3.13;72.83;99932.22;5115253;28;841;-58
2022/02/20 01:16:49;;;;;;;;;;;;;;;3.10;72.91;99929.41;5115691;28;936;-59
2022/02/20 01:19:15;;;;;;;;;;;;;;;3.04;73.02;99935.09;5115772;28;763;-58
2022/02/20 01:21:42;;;;;;;;;;;;;;;3.00;72.74;99934.19;5131073;27;1898;-58
2022/02/20 01:24:08;;;;;;;;;;;;;;;3.02;73.06;99937.38;5115470;28;783;-59
2022/02/20 01:26:35;;;;;;;;;;;;;;;3.01;72.36;99933.06;5115248;28;873;-59
2022/02/20 01:29:01;;;;;;;;;;;;;;;3.00;73.24;99933.41;5096451;28;1354;-59
2022/02/20 01:31:27;;;;;;;;;;;;;;;2.98;72.60;99932.97;5114723;28;866;-59
2022/02/20 01:33:54;;;;;;;;;;;;;;;2.95;72.90;99937.19;5114644;28;798;-59
2022/02/20 01:36:20;;;;;;;;;;;;;;;2.99;73.54;99937.31;5114552;28;835;-58
2022/02/20 01:38:46;;;;;;;;;;;;;;;2.99;73.46;99942.75;5114780;28;807;-59
2022/02/20 01:41:16;;;;;;;;;;;;;;;2.93;74.37;99944.94;5114307;28;1890;-59
2022/02/20 01:43:43;;;;;;;;;;;;;;;2.93;74.29;99933.22;5114489;28;834;-58
2022/02/20 01:46:09;;;;;;;;;;;;;;;2.88;73.88;99931.53;5114487;28;870;-59
2022/02/20 01:48:36;;;;;;;;;;;;;;;2.85;74.84;99938.47;5114403;28;874;-58
2022/02/20 01:51:05;;;;;;;;;;;;;;;2.95;75.40;99926.28;5114075;28;1348;-59
2022/02/20 01:53:32;;;;;;;;;;;;;;;3.45;74.20;99922.13;5114267;28;881;-59
2022/02/20 01:55:58;;;;;;;;;;;;;;;3.88;73.14;99930.59;5114561;28;811;-59
2022/02/20 01:58:25;;;;;;;;;;;;;;;4.09;71.68;99933.03;5114479;28;795;-59
2022/02/20 02:00:51;;;;;;;;;;;;;;;4.09;71.42;99933.03;5114003;28;1909;-59
2022/02/20 02:03:20;;;;;;;;;;;;;;;3.96;71.58;99934.31;5114215;28;830;-58
2022/02/20 02:05:47;;;;;;;;;;;;;;;3.89;71.56;99938.44;5114053;28;861;-58
2022/02/20 02:08:18;;;;;;;;;;;;;;;3.91;71.54;99937.31;5114019;28;873;-58
2022/02/20 02:10:45;;;;;;;;;;;;;;;3.76;71.28;99945.16;5113853;28;867;-58
2022/02/20 02:13:10;;;;;;;;;;;;;;;3.62;72.08;99948.31;5113971;28;916;-58
2022/02/20 02:15:57;;;;;;;;;;;;;;;3.41;72.26;99950.50;5114221;28;1028;-58
2022/02/20 02:18:23;;;;;;;;;;;;;;;3.21;73.13;99947.66;5113852;28;1725;-59
2022/02/20 02:20:50;;;;;;;;;;;;;;;3.19;73.17;99940.97;5113043;28;1940;-58
2022/02/20 02:23:17;;;;;;;;;;;;;;;3.24;73.21;99937.97;5113717;28;799;-58
2022/02/20 02:25:44;;;;;;;;;;;;;;;3.28;73.29;99931.44;5113637;28;1036;-58
2022/02/20 02:28:10;;;;;;;;;;;;;;;3.34;73.87;99917.53;5113440;28;842;-58
2022/02/20 02:30:37;;;;;;;;;;;;;;;3.42;73.15;99906.44;5113570;28;842;-58
2022/02/20 02:33:03;;;;;;;;;;;;;;;3.53;73.02;99906.72;5113456;28;822;-58
2022/02/20 02:35:30;;;;;;;;;;;;;;;3.62;72.93;99914.72;5113443;28;878;-58
2022/02/20 02:37:57;;;;;;;;;;;;;;;3.61;72.58;99919.41;5113458;28;849;-58
2022/02/20 02:40:23;;;;;;;;;;;;;;;3.54;72.67;99916.50;5113237;28;1885;-58
2022/02/20 02:42:51;;;;;;;;;;;;;;;3.53;72.54;99903.97;5113272;28;814;-58
2022/02/20 02:45:17;;;;;;;;;;;;;;;3.58;72.50;99908.38;5113161;28;861;-58
2022/02/20 02:47:44;;;;;;;;;;;;;;;3.54;72.74;99912.97;5113212;28;857;-58
2022/02/20 02:50:12;;;;;;;;;;;;;;;3.48;72.83;99928.84;5112940;28;1317;-58
2022/02/20 02:52:38;;;;;;;;;;;;;;;3.37;73.37;99931.31;5113168;28;858;-58
2022/02/20 02:55:05;;;;;;;;;;;;;;;3.30;72.95;99920.19;5113071;28;803;-58
2022/02/20 02:57:31;;;;;;;;;;;;;;;3.30;72.99;99927.59;5112922;28;890;-58
2022/02/20 02:59:59;;;;;;;;;;;;;;;3.30;73.23;99919.38;5112898;28;803;-58
2022/02/20 03:02:25;;;;;;;;;;;;;;;3.32;73.27;99915.16;5112866;28;1977;-58
2022/02/20 03:04:50;;;;;;;;;;;;;;;3.32;73.64;99898.75;5112938;28;858;-58
2022/02/20 03:07:17;;;;;;;;;;;;;;;3.32;73.16;99904.22;5112868;28;846;-58
2022/02/20 03:09:44;;;;;;;;;;;;;;;3.27;73.42;99921.69;5112701;28;854;-58
2022/02/20 03:12:10;;;;;;;;;;;;;;;3.16;73.94;99936.19;5112589;28;886;-58
2022/02/20 03:14:37;;;;;;;;;;;;;;;2.98;73.83;99939.22;5112648;28;890;-58
2022/02/20 03:17:04;;;;;;;;;;;;;;;2.85;74.77;99924.03;5112932;28;971;-58
2022/02/20 03:19:30;;;;;;;;;;;;;;;2.79;74.49;99922.69;5112659;28;791;-58
2022/02/20 03:21:57;;;;;;;;;;;;;;;2.74;74.83;99929.19;5094207;28;1949;-58
2022/02/20 03:24:23;;;;;;;;;;;;;;;2.67;75.29;99918.09;5112568;28;811;-58
2022/02/20 03:26:50;;;;;;;;;;;;;;;2.60;75.43;99910.50;5112463;28;818;-58
2022/02/20 03:29:15;;;;;;;;;;;;;;;2.61;74.91;99898.41;5112450;28;924;-58
2022/02/20 03:31:42;;;;;;;;;;;;;;;2.64;75.22;99884.06;5112150;28;843;-58
2022/02/20 03:34:08;;;;;;;;;;;;;;;2.61;75.23;99884.78;5112447;28;857;-58
2022/02/20 03:36:34;;;;;;;;;;;;;;;2.56;75.90;99886.94;5112337;28;862;-58
2022/02/20 03:39:01;;;;;;;;;;;;;;;2.53;75.56;99874.00;5112321;28;818;-58
2022/02/20 03:41:28;;;;;;;;;;;;;;;2.53;75.68;99877.53;5112134;28;1960;-58
2022/02/20 03:43:54;;;;;;;;;;;;;;;2.61;75.89;99876.59;5112477;28;803;-58
2022/02/20 03:46:20;;;;;;;;;;;;;;;2.66;76.13;99895.44;5112272;28;854;-58
2022/02/20 03:48:46;;;;;;;;;;;;;;;2.72;76.05;99912.38;5112191;28;913;-58
2022/02/20 03:51:12;;;;;;;;;;;;;;;2.78;75.97;99910.19;5073639;28;1334;-58
2022/02/20 03:53:39;;;;;;;;;;;;;;;2.85;76.14;99922.09;5071552;28;878;-58
2022/02/20 03:56:05;;;;;;;;;;;;;;;2.93;76.12;99934.03;5071488;28;922;-58
2022/02/20 03:58:32;;;;;;;;;;;;;;;2.96;75.92;99943.44;5087088;28;953;-58
2022/02/20 04:00:59;;;;;;;;;;;;;;;3.00;75.32;99941.59;5071582;28;1934;-58
2022/02/20 04:03:26;;;;;;;;;;;;;;;3.01;75.85;99922.16;5071660;28;822;-58
2022/02/20 04:05:52;;;;;;;;;;;;;;;3.04;75.26;99915.97;5071676;28;886;-58
2022/02/20 04:08:19;;;;;;;;;;;;;;;3.11;76.15;99909.13;5071623;28;867;-58
2022/02/20 04:10:45;;;;;;;;;;;;;;;3.17;75.97;99894.88;5071277;28;930;-58
2022/02/20 04:13:11;;;;;;;;;;;;;;;3.30;75.33;99895.59;5071940;28;915;-58
2022/02/20 04:15:38;;;;;;;;;;;;;;;3.54;74.80;99888.38;5071393;28;938;-58
2022/02/20 04:18:04;;;;;;;;;;;;;;;3.64;74.20;99896.81;5071257;28;918;-58
2022/02/20 04:20:31;;;;;;;;;;;;;;;3.65;74.27;99901.16;5071173;28;1960;-58
2022/02/20 04:22:57;;;;;;;;;;;;;;;3.65;74.05;99909.38;5071565;28;890;-58
2022/02/20 04:25:24;;;;;;;;;;;;;;;3.71;73.89;99906.34;5071109;28;918;-58
2022/02/20 04:27:50;;;;;;;;;;;;;;;3.69;73.80;99917.63;5070990;28;899;-58
2022/02/20 04:30:18;;;;;;;;;;;;;;;3.63;73.36;99921.81;5071215;28;830;-58
2022/02/20 04:32:45;;;;;;;;;;;;;;;3.58;73.70;99908.38;5052951;28;889;-58
2022/02/20 04:35:13;;;;;;;;;;;;;;;3.54;73.91;99908.31;5071143;28;803;-58
2022/02/20 04:37:39;;;;;;;;;;;;;;;3.58;74.42;99911.13;5071012;28;894;-58
2022/02/20 04:40:06;;;;;;;;;;;;;;;3.70;73.78;99905.56;5071034;28;841;-58
2022/02/20 04:42:33;;;;;;;;;;;;;;;3.77;73.85;99907.69;5071911;28;1878;-58
2022/02/20 04:45:00;;;;;;;;;;;;;;;3.80;73.67;99896.06;5074883;28;803;-58
2022/02/20 04:47:28;;;;;;;;;;;;;;;3.83;74.26;99892.59;5074854;28;807;-58
2022/02/20 04:49:54;;;;;;;;;;;;;;;3.86;73.53;99895.41;5080467;28;1453;-58
2022/02/20 04:52:21;;;;;;;;;;;;;;;3.90;73.26;99881.81;5095014;28;878;-58
2022/02/20 04:54:48;;;;;;;;;;;;;;;3.92;73.53;99887.72;5095204;28;839;-58
2022/02/20 04:57:14;;;;;;;;;;;;;;;3.94;73.35;99882.69;5094907;28;830;-58
2022/02/20 04:59:40;;;;;;;;;;;;;;;3.94;73.83;99876.44;5076597;28;1328;-58
2022/02/20 05:02:06;;;;;;;;;;;;;;;3.95;73.61;99873.34;5094758;28;1970;-58
2022/02/20 05:04:33;;;;;;;;;;;;;;;3.94;73.69;99881.91;5094762;28;847;-58
2022/02/20 05:06:59;;;;;;;;;;;;;;;3.92;73.70;99901.38;5094854;28;851;-58
2022/02/20 05:09:25;;;;;;;;;;;;;;;3.87;73.68;99902.47;5094595;28;850;-58
2022/02/20 05:11:52;;;;;;;;;;;;;;;3.84;73.43;99891.44;5094699;28;823;-58
2022/02/20 05:14:18;;;;;;;;;;;;;;;3.80;74.08;99915.97;5094842;28;851;-58
2022/02/20 05:16:44;;;;;;;;;;;;;;;3.74;73.69;99955.66;5094940;28;919;-58
2022/02/20 05:19:11;;;;;;;;;;;;;;;3.61;74.08;99973.28;5094486;28;871;-58
2022/02/20 05:21:37;;;;;;;;;;;;;;;3.45;74.41;99962.31;5076243;28;1897;-58
2022/02/20 05:24:04;;;;;;;;;;;;;;;3.42;75.32;99966.56;5094664;28;898;-58
2022/02/20 05:26:31;;;;;;;;;;;;;;;3.51;75.35;99966.41;5094734;28;886;-58
2022/02/20 05:28:57;;;;;;;;;;;;;;;3.60;75.54;99968.97;5076172;28;776;-58
2022/02/20 05:31:24;;;;;;;;;;;;;;;3.73;74.92;99977.88;5094342;28;807;-58
2022/02/20 05:33:51;;;;;;;;;;;;;;;3.86;74.80;99976.63;5094197;28;846;-58
2022/02/20 05:36:17;;;;;;;;;;;;;;;3.99;74.69;99969.13;5094283;28;874;-58
2022/02/20 05:38:43;;;;;;;;;;;;;;;4.11;74.01;99963.56;5093958;28;1101;-59
2022/02/20 05:41:10;;;;;;;;;;;;;;;4.22;73.66;99955.63;5094065;28;1952;-58
2022/02/20 05:43:39;;;;;;;;;;;;;;;4.32;73.40;99955.06;5094153;28;866;-58
2022/02/20 05:46:04;;;;;;;;;;;;;;;4.40;73.16;99956.81;5093902;28;925;-58
2022/02/20 05:48:31;;;;;;;;;;;;;;;4.46;73.09;99958.13;5094174;28;791;-58
2022/02/20 05:50:56;;;;;;;;;;;;;;;4.52;72.98;99949.63;5093740;28;1400;-58
2022/02/20 05:53:23;;;;;;;;;;;;;;;4.52;72.59;99963.31;5093761;28;827;-58
2022/02/20 05:55:49;;;;;;;;;;;;;;;4.48;72.65;99972.25;5093935;28;874;-58
2022/02/20 05:58:17;;;;;;;;;;;;;;;4.46;72.95;99957.34;5093771;28;858;-58
2022/02/20 06:00:43;;;;;;;;;;;;;;;4.52;72.73;99949.63;5093807;28;1977;-58
2022/02/20 06:03:10;;;;;;;;;;;;;;;4.60;72.46;99945.91;5093725;28;867;-58
2022/02/20 06:05:36;;;;;;;;;;;;;;;4.76;72.24;99948.56;5093918;28;869;-58
2022/02/20 06:08:03;;;;;;;;;;;;;;;5.02;71.61;99951.47;5093657;28;845;-58
2022/02/20 06:10:30;;;;;;;;;;;;;;;5.25;71.29;99950.75;5109258;28;827;-58
2022/02/20 06:12:56;;;;;;;;;;;;;;;5.37;71.04;99928.63;5093497;28;1031;-58
2022/02/20 06:15:24;;;;;;;;;;;;;;;5.47;70.55;99932.72;5093578;28;990;-58
2022/02/20 06:17:50;;;;;;;;;;;;;;;5.63;70.21;99925.19;5093423;28;915;-58
2022/02/20 06:20:17;;;;;;;;;;;;;;;5.77;69.93;99932.06;5075194;28;894;-58
2022/02/20 06:22:43;;;;;;;;;;;;;;;5.92;69.31;99940.16;5093562;28;1877;-58
2022/02/20 06:25:10;;;;;;;;;;;;;;;6.04;68.58;99932.91;5093247;28;890;-58
2022/02/20 06:27:36;;;;;;;;;;;;;;;6.00;68.56;99937.56;5075241;28;773;-58
2022/02/20 06:30:02;;;;;;;;;;;;;;;5.96;68.85;99936.72;5093580;28;894;-58
2022/02/20 06:32:28;;;;;;;;;;;;;;;6.04;68.87;99924.66;5108845;28;818;-58
2022/02/20 06:34:54;;;;;;;;;;;;;;;6.18;67.79;99922.13;5093152;28;834;-58
2022/02/20 06:37:21;;;;;;;;;;;;;;;6.38;67.37;99931.06;5092975;28;827;-58
2022/02/20 06:39:48;;;;;;;;;;;;;;;6.70;66.91;99934.25;5093154;28;853;-58
2022/02/20 06:42:15;;;;;;;;;;;;;;;7.21;66.35;99934.81;5093088;28;1906;-58
2022/02/20 06:44:42;;;;;;;;;;;;;;;7.88;64.98;99942.16;5108819;28;861;-58
2022/02/20 06:47:08;;;;;;;;;;;;;;;8.32;63.15;99933.81;5092815;28;830;-58
2022/02/20 06:49:34;;;;;;;;;;;;;;;8.42;61.61;99946.09;5092564;28;1363;-58
2022/02/20 06:52:01;;;;;;;;;;;;;;;8.29;62.32;99956.59;5074565;28;1274;-58
2022/02/20 06:54:27;;;;;;;;;;;;;;;8.40;62.18;99959.44;5092559;28;946;-58
2022/02/20 06:56:55;;;;;;;;;;;;;;;8.60;62.09;99962.75;5092570;28;906;-58
2022/02/20 06:59:22;;;;;;;;;;;;;;;8.91;61.14;99980.59;5092944;28;854;-58
2022/02/20 07:01:48;;;;;;;;;;;;;;;8.97;60.17;99994.81;5092467;28;1975;-58
2022/02/20 07:04:16;;;;;;;;;;;;;;;8.79;60.04;99991.97;5092560;28;874;-58
2022/02/20 07:06:43;;;;;;;;;;;;;;;8.69;60.79;99987.19;5091782;28;855;-58
2022/02/20 07:09:10;;;;;;;;;;;;;;;8.57;61.28;99969.78;5092386;28;871;-58
2022/02/20 07:11:37;;;;;;;;;;;;;;;8.52;61.83;99958.38;5092452;28;803;-58
2022/02/20 07:14:04;;;;;;;;;;;;;;;8.38;60.98;99954.31;5092555;28;1013;-58
2022/02/20 07:16:31;;;;;;;;;;;;;;;8.39;61.15;99944.09;5092572;28;942;-58
2022/02/20 07:18:59;;;;;;;;;;;;;;;8.58;61.22;99954.06;5092221;28;862;-58
2022/02/20 07:21:26;;;;;;;;;;;;;;;8.67;60.72;99965.53;5092111;28;1932;-58
2022/02/20 07:23:53;;;;;;;;;;;;;;;8.58;60.83;99954.06;5092167;28;875;-58
2022/02/20 07:26:19;;;;;;;;;;;;;;;8.53;61.12;99943.41;5092076;28;838;-58
2022/02/20 07:28:46;;;;;;;;;;;;;;;8.42;61.52;99948.84;5092147;28;866;-58
2022/02/20 07:31:13;;;;;;;;;;;;;;;8.18;61.69;99950.25;5092012;28;811;-58
2022/02/20 07:33:40;;;;;;;;;;;;;;;7.95;62.84;99948.47;5091942;28;855;-58
2022/02/20 07:36:06;;;;;;;;;;;;;;;7.83;63.45;99945.22;5091793;28;937;-58
2022/02/20 07:38:32;;;;;;;;;;;;;;;7.79;63.43;99961.72;5091950;28;902;-58
2022/02/20 07:40:59;;;;;;;;;;;;;;;7.80;63.25;99968.81;5091795;28;1965;-58
2022/02/20 07:43:26;;;;;;;;;;;;;;;7.86;63.23;99972.78;5091778;28;890;-58
2022/02/20 07:45:54;;;;;;;;;;;;;;;7.92;62.88;99970.50;5091858;28;987;-58
2022/02/20 07:48:20;;;;;;;;;;;;;;;8.09;62.64;99969.84;5091707;28;882;-58
2022/02/20 07:50:47;;;;;;;;;;;;;;;8.41;61.72;99958.28;5091731;28;1612;-58
2022/02/20 07:53:13;;;;;;;;;;;;;;;8.74;61.29;99951.78;5091642;28;977;-58
2022/02/20 07:55:40;;;;;;;;;;;;;;;9.33;59.85;99948.84;5091841;28;894;-58
2022/02/20 07:58:10;;;;;;;;;;;;;;;9.75;58.49;99950.09;5091708;28;807;-58
2022/02/20 08:00:36;;;;;;;;;;;;;;;9.64;57.72;99942.97;5091353;28;1909;-58
2022/02/20 08:03:03;;;;;;;;;;;;;;;9.43;57.85;99943.72;5091579;28;878;-58
2022/02/20 08:05:29;;;;;;;;;;;;;;;9.43;58.42;99949.25;5091411;28;929;-58
2022/02/20 08:07:55;;;;;;;;;;;;;;;9.54;57.30;99945.34;5091396;28;986;-58
2022/02/20 08:10:21;;;;;;;;;;;;;;;9.57;56.71;99935.50;5091568;28;818;-58
2022/02/20 08:12:47;;;;;;;;;;;;;;;9.70;56.36;99936.69;5091715;28;858;-58
2022/02/20 08:15:14;;;;;;;;;;;;;;;9.72;56.40;99934.31;5091826;28;935;-59
2022/02/20 08:17:44;;;;;;;;;;;;;;;9.92;56.47;99937.50;5092780;28;921;-58
2022/02/20 08:20:12;;;;;;;;;;;;;;;10.21;55.78;99943.75;5095497;28;963;-59
2022/02/20 08:22:38;;;;;;;;;;;;;;;10.12;55.47;99950.91;5095449;28;1885;-58
2022/02/20 08:25:05;;;;;;;;;;;;;;;9.92;55.63;99954.06;5095391;28;874;-58
2022/02/20 08:27:36;;;;;;;;;;;;;;;9.78;56.11;99954.03;5095561;28;846;-58
2022/02/20 08:30:04;;;;;;;;;;;;;;;9.76;56.20;99948.91;5095791;28;811;-58
2022/02/20 08:32:30;;;;;;;;;;;;;;;9.69;55.51;99942.63;5077283;28;960;-58
2022/02/20 08:34:57;;;;;;;;;;;;;;;9.58;55.90;99948.09;5095273;28;895;-58
2022/02/20 08:37:24;;;;;;;;;;;;;;;9.56;55.90;99940.22;5095173;28;1209;-58
2022/02/20 08:39:50;;;;;;;;;;;;;;;9.64;56.55;99942.97;5095233;28;867;-58
2022/02/20 08:42:17;;;;;;;;;;;;;;;9.76;56.43;99926.03;5095111;28;1971;-58
2022/02/20 08:44:44;;;;;;;;;;;;;;;10.01;56.23;99923.28;5095392;28;949;-58
2022/02/20 08:47:10;;;;;;;;;;;;;;;10.00;55.53;99930.75;5095037;28;867;-58
2022/02/20 08:49:37;;;;;;;;;;;;;;;9.97;56.00;99930.78;5094874;28;1198;-58
2022/02/20 08:52:03;;;;;;;;;;;;;;;9.92;56.43;99920.94;5094972;28;937;-58
2022/02/20 08:54:30;;;;;;;;;;;;;;;10.08;56.43;99916.97;5094881;28;874;-58
2022/02/20 08:56:56;;;;;;;;;;;;;;;10.15;56.28;99911.41;5095091;28;853;-58
2022/02/20 08:59:23;;;;;;;;;;;;;;;10.39;55.85;99905.09;5094820;28;967;-58
2022/02/20 09:01:50;;;;;;;;;;;;;;;10.47;55.67;99896.78;5094691;28;1918;-58
2022/02/20 09:04:17;;;;;;;;;;;;;;;10.50;55.48;99898.75;5094787;28;875;-58
2022/02/20 09:06:43;;;;;;;;;;;;;;;10.52;54.76;99904.66;5094666;28;1008;-59
2022/02/20 09:09:10;;;;;;;;;;;;;;;10.62;55.22;99904.66;5095085;28;878;-58
2022/02/20 09:11:38;;;;;;;;;;;;;;;10.92;54.73;99905.28;5094682;28;915;-58
2022/02/20 09:14:06;;;;;;;;;;;;;;;11.18;53.71;99906.72;5094569;28;926;-58
2022/02/20 09:16:33;;;;;;;;;;;;;;;11.44;53.22;99895.13;5094626;28;941;-58
2022/02/20 09:19:03;;;;;;;;;;;;;;;11.44;52.96;99895.13;5094455;28;839;-58
2022/02/20 09:21:30;;;;;;;;;;;;;;;11.72;51.93;99873.94;5094186;28;1898;-58
2022/02/20 09:23:57;;;;;;;;;;;;;;;12.09;51.48;99877.97;5094563;28;878;-58
2022/02/20 09:26:24;;;;;;;;;;;;;;;12.34;50.93;99871.41;5094555;28;810;-58
2022/02/20 09:28:51;;;;;;;;;;;;;;;12.12;51.11;99876.38;5093948;28;830;-58
2022/02/20 09:31:17;;;;;;;;;;;;;;;12.18;51.28;99874.72;5094273;28;830;-58
2022/02/20 09:33:44;;;;;;;;;;;;;;;12.21;51.39;99873.91;5094240;28;854;-58
2022/02/20 09:36:10;;;;;;;;;;;;;;;12.31;51.56;99861.94;5076099;28;714;-58
2022/02/20 09:38:37;;;;;;;;;;;;;;;12.13;51.45;99853.03;5094244;28;957;-58
2022/02/20 09:41:07;;;;;;;;;;;;;;;12.12;51.41;99848.66;5094119;28;1885;-58
2022/02/20 09:43:35;;;;;;;;;;;;;;;12.52;51.06;99824.06;5094156;28;803;-58
2022/02/20 09:46:02;;;;;;;;;;;;;;;12.81;49.91;99827.25;5093958;28;989;-58
2022/02/20 09:48:28;;;;;;;;;;;;;;;13.23;49.28;99831.41;5094316;28;874;-58
2022/02/20 09:50:54;;;;;;;;;;;;;;;13.63;48.36;99823.28;5093992;28;1191;-58
2022/02/20 09:53:21;;;;;;;;;;;;;;;14.03;47.84;99820.56;5093966;28;823;-58
2022/02/20 09:55:48;;;;;;;;;;;;;;;14.03;47.70;99823.31;5093912;28;882;-58
2022/02/20 09:58:16;;;;;;;;;;;;;;;14.03;47.64;99814.22;5094030;28;834;-58
2022/02/20 10:00:55;;;;;;;;;;;;;;;14.00;47.37;99817.84;5093643;28;1975;-58
2022/02/20 10:03:28;;;;;;;;;;;;;;;13.91;47.07;99823.16;5109545;28;803;-58
2022/02/20 10:05:54;;;;;;;;;;;;;;;14.15;47.25;99812.81;5093663;28;902;-58
2022/02/20 10:08:20;;;;;;;;;;;;;;;14.06;47.21;99799.44;5093701;28;850;-59
2022/02/20 10:10:47;;;;;;;;;;;;;;;14.09;47.17;99802.19;5093502;28;908;-58
2022/02/20 10:13:23;;;;;;;;;;;;;;;14.32;46.66;99808.91;5093631;28;827;-58
2022/02/20 10:15:50;;;;;;;;;;;;;;;14.05;47.13;99773.66;5109506;28;1065;-59
2022/02/20 10:18:18;;;;;;;;;;;;;;;14.47;46.87;99793.47;5093671;28;884;-58
2022/02/20 10:20:47;;;;;;;;;;;;;;;14.83;46.02;99781.59;5093428;28;1897;-58
2022/02/20 10:23:14;;;;;;;;;;;;;;;15.15;45.49;99790.41;5093271;28;835;-59
2022/02/20 10:25:42;;;;;;;;;;;;;;;15.30;44.98;99798.00;5093202;28;933;-59
2022/02/20 10:28:10;;;;;;;;;;;;;;;15.24;44.59;99796.19;5093195;28;863;-59
2022/02/20 10:30:35;;;;;;;;;;;;;;;15.19;44.30;99791.91;5093444;28;886;-58
2022/02/20 10:33:20;;;;;;;;;;;;;;;15.08;44.39;99792.16;5093382;28;848;-58
2022/02/20 10:35:47;;;;;;;;;;;;;;;14.95;44.08;99782.91;5075143;28;1365;-58
2022/02/20 10:38:15;;;;;;;;;;;;;;;14.81;43.56;99772.13;5093271;28;906;-59
2022/02/20 10:40:47;;;;;;;;;;;;;;;14.64;43.92;99771.31;5092018;28;1952;-59
2022/02/20 10:43:33;;;;;;;;;;;;;;;14.65;43.90;99764.53;5092874;28;956;-58
2022/02/20 10:46:10;;;;;;;;;;;;;;;14.45;43.67;99756.19;5092778;28;866;-58
2022/02/20 10:48:40;;;;;;;;;;;;;;;14.31;43.58;99762.81;5092882;28;877;-58
2022/02/20 10:51:06;;;;;;;;;;;;;;;14.14;44.26;99758.41;5092518;28;1147;-58
2022/02/20 10:53:33;;;;;;;;;;;;;;;13.97;45.14;99754.78;5092810;28;831;-58
2022/02/20 10:56:00;;;;;;;;;;;;;;;14.02;45.09;99743.97;5092541;28;927;-58
2022/02/20 10:58:27;;;;;;;;;;;;;;;14.07;44.92;99737.91;5092845;28;934;-58
2022/02/20 11:00:57;;;;;;;;;;;;;;;14.07;44.45;99732.34;5092299;28;1909;-59
2022/02/20 11:03:26;;;;;;;;;;;;;;;14.14;44.47;99723.06;5092994;28;1025;-59
2022/02/20 11:05:53;;;;;;;;;;;;;;;14.20;44.57;99717.78;5092712;28;810;-58
2022/02/20 11:08:22;;;;;;;;;;;;;;;14.29;44.47;99712.44;5092804;28;866;-59
2022/02/20 11:10:49;;;;;;;;;;;;;;;14.39;44.00;99708.66;5092367;28;856;-59
2022/02/20 11:13:16;;;;;;;;;;;;;;;14.57;44.09;99710.25;5092592;28;898;-58
2022/02/20 11:15:46;;;;;;;;;;;;;;;14.75;43.06;99716.22;5092308;28;921;-58
2022/02/20 11:18:16;;;;;;;;;;;;;;;15.03;42.59;99709.19;5092297;28;854;-58
2022/02/20 11:20:47;;;;;;;;;;;;;;;15.11;42.39;99709.78;5091991;28;1953;-58
2022/02/20 11:23:22;;;;;;;;;;;;;;;15.10;42.19;99714.56;5092038;28;1052;-58
2022/02/20 11:25:50;;;;;;;;;;;;;;;15.27;42.10;99718.09;5093039;28;743;-58
2022/02/20 11:28:17;;;;;;;;;;;;;;;15.51;41.60;99720.69;5092323;28;855;-58
2022/02/20 11:30:43;;;;;;;;;;;;;;;15.81;40.50;99702.00;5092632;28;791;-58
2022/02/20 11:33:11;;;;;;;;;;;;;;;16.35;39.49;99697.69;5092202;28;835;-58
2022/02/20 11:35:39;;;;;;;;;;;;;;;16.68;38.36;99692.66;5092184;28;1000;-59
2022/02/20 11:38:07;;;;;;;;;;;;;;;16.49;38.43;99683.28;5091936;28;819;-59
2022/02/20 11:40:49;;;;;;;;;;;;;;;16.39;39.32;99682.41;5091911;28;878;-59
2022/02/20 11:43:16;;;;;;;;;;;;;;;16.48;38.97;99681.72;5091959;28;881;-58
2022/02/20 11:46:01;;;;;;;;;;;;;;;16.45;38.52;99689.00;5091877;28;834;-59
2022/02/20 11:48:27;;;;;;;;;;;;;;;16.82;37.63;99680.31;5092188;28;831;-59
2022/02/20 11:51:09;;;;;;;;;;;;;;;17.11;37.06;99685.69;5091230;28;1216;-59
2022/02/20 11:53:35;;;;;;;;;;;;;;;17.11;37.22;99689.28;5091556;28;870;-59
2022/02/20 11:56:03;;;;;;;;;;;;;;;17.34;37.36;99693.69;5091674;28;803;-59
2022/02/20 11:58:30;;;;;;;;;;;;;;;17.58;36.78;99689.69;5091589;28;918;-59
2022/02/20 12:00:57;;;;;;;;;;;;;;;17.60;36.27;99695.59;5091458;28;1910;-59
2022/02/20 12:03:23;;;;;;;;;;;;;;;17.71;36.03;99707.22;5091641;28;849;-59
2022/02/20 12:06:08;;;;;;;;;;;;;;;18.02;35.34;99710.09;5091721;28;799;-57
2022/02/20 12:08:36;;;;;;;;;;;;;;;18.23;35.09;99696.53;5091456;28;867;-58
2022/02/20 12:11:23;;;;;;;;;;;;;;;18.52;34.33;99701.81;5091775;28;886;-59
2022/02/20 12:13:51;;;;;;;;;;;;;;;18.19;34.43;99687.50;5091484;28;906;-59
2022/02/20 12:16:21;;;;;;;;;;;;;;;18.02;35.05;99682.13;5091693;28;1029;-59
2022/02/20 12:19:21;;;;;;;;;;;;;;;18.40;35.16;99683.13;5091588;28;805;-59
2022/02/20 12:21:57;;;;;;;;;;;;;;;18.89;33.93;99694.34;5057700;28;1886;-59
2022/02/20 12:24:41;;;;;;;;;;;;;;;19.15;33.53;99672.47;5091318;28;850;-57
2022/02/20 12:27:11;;;;;;;;;;;;;;;18.86;33.62;99658.91;5091395;28;846;-59
2022/02/20 12:29:39;;;;;;;;;;;;;;;18.93;33.63;99657.81;5091207;28;933;-58
2022/02/20 12:32:11;;;;;;;;;;;;;;;19.06;33.65;99649.28;5073153;28;890;-59
2022/02/20 12:34:58;;;;;;;;;;;;;;;19.13;33.50;99635.72;5091183;28;899;-58
2022/02/20 12:37:29;;;;;;;;;;;;;;;18.89;33.65;99632.75;5091385;28;787;-59
2022/02/20 12:39:57;;;;;;;;;;;;;;;18.62;34.53;99627.06;5091008;28;815;-57
2022/02/20 12:42:25;;;;;;;;;;;;;;;18.26;34.40;99631.28;5091312;28;807;-59
2022/02/20 12:44:52;;;;;;;;;;;;;;;18.56;34.60;99624.88;5073125;28;2448;-59
2022/02/20 12:47:18;;;;;;;;;;;;;;;19.17;34.41;99615.97;5091223;28;1002;-58
2022/02/20 12:49:53;;;;;;;;;;;;;;;18.91;33.86;99613.47;5087431;28;1279;-59
2022/02/20 12:52:19;;;;;;;;;;;;;;;18.21;35.49;99620.69;5070856;28;1914;-59
2022/02/20 12:54:53;;;;;;;;;;;;;;;17.63;36.81;99617.25;5070923;28;815;-59
2022/02/20 12:57:20;;;;;;;;;;;;;;;17.49;37.23;99621.31;5070898;28;827;-59
2022/02/20 13:00:12;;;;;;;;;;;;;;;17.26;37.52;99633.75;5070850;28;862;-59
2022/02/20 13:02:43;;;;;;;;;;;;;;;17.34;37.62;99629.44;5068567;28;1140;-59
2022/02/20 13:05:12;;;;;;;;;;;;;;;17.25;37.88;99618.19;5074344;28;807;-59
2022/02/20 13:07:43;;;;;;;;;;;;;;;16.92;37.86;99620.56;5074665;28;846;-59
2022/02/20 13:10:13;;;;;;;;;;;;;;;16.82;38.39;99618.91;5090533;28;810;-59
2022/02/20 13:12:40;;;;;;;;;;;;;;;17.21;38.36;99620.34;5074404;28;1889;-59
2022/02/20 13:15:07;;;;;;;;;;;;;;;18.00;37.33;99622.31;5074371;28;911;-59